Time;durP1;ratioP1;P1;durP2;ratioP2;P2;SDS_P1;SDS_P2;PMS_P1;PMS_P2;Temp;Humidity;BMP_temperature;BMP_pressure;BME280_temperature;BME280_humidity;BME280_pressure;Samples;Min_cycle;Max_cycle;Signal;HPM_P1;HPM_P2
2023/12/27 00:00:52;;;;;;;22.02;13.13;;;;;;;9.02;78.75;101251.84;4154882;28;20084;-65
2023/12/27 00:02:57;;;;;;;15.68;9.13;;;;;;;9.00;78.41;101253.53;4158434;28;20037;-64
2023/12/27 00:04:59;;;;;;;17.48;10.43;;;;;;;8.98;78.89;101252.56;4162391;28;20037;-64
2023/12/27 00:07:02;;;;;;;7.15;4.25;;;;;;;8.96;78.72;101260.31;4147571;28;20108;-65
2023/12/27 00:09:06;;;;;;;8.57;3.47;;;;;;;8.95;79.09;101260.25;4153632;28;20050;-64
2023/12/27 00:11:09;;;;;;;6.65;2.88;;;;;;;8.96;78.88;101264.63;4150608;28;20103;-61
2023/12/27 00:13:12;;;;;;;4.82;3.08;;;;;;;8.97;78.68;101263.81;4152868;28;20107;-63
2023/12/27 00:15:14;;;;;;;8.38;4.25;;;;;;;8.98;78.42;101270.72;4158750;28;20077;-62
2023/12/27 00:17:18;;;;;;;19.92;11.88;;;;;;;8.97;78.64;101264.66;4150686;28;20061;-62
2023/12/27 00:19:22;;;;;;;16.50;9.80;;;;;;;9.00;78.86;101266.50;4149526;28;20525;-64
2023/12/27 00:21:24;;;;;;;12.30;6.07;;;;;;;9.00;78.49;101264.78;4152792;28;20170;-62
2023/12/27 00:23:28;;;;;;;9.90;4.47;;;;;;;8.99;78.60;101255.22;4162399;28;20037;-62
2023/12/27 00:25:32;;;;;;;6.22;3.33;;;;;;;8.98;78.31;101248.28;4147857;28;20037;-63
2023/12/27 00:27:35;;;;;;;9.98;3.72;;;;;;;8.96;78.88;101249.94;4148857;28;20045;-62
2023/12/27 00:29:38;;;;;;;7.13;3.83;;;;;;;8.96;78.77;101246.47;4151056;28;20046;-63
2023/12/27 00:31:41;;;;;;;11.82;3.63;;;;;;;8.91;78.83;101244.59;4154760;28;20034;-63
2023/12/27 00:33:43;;;;;;;9.18;4.03;;;;;;;8.93;78.79;101247.25;4158469;28;20042;-63
2023/12/27 00:35:48;;;;;;;8.10;3.10;;;;;;;8.87;78.92;101247.91;4156576;28;20090;-63
2023/12/27 00:37:50;;;;;;;8.00;3.55;;;;;;;8.84;79.24;101252.13;4149080;28;20124;-63
2023/12/27 00:39:52;;;;;;;5.03;2.65;;;;;;;8.86;79.20;101251.34;4163523;28;20037;-63
2023/12/27 00:41:56;;;;;;;8.88;2.92;;;;;;;8.85;79.21;101257.38;4160333;28;20079;-64
2023/12/27 00:43:59;;;;;;;6.53;2.28;;;;;;;8.83;79.19;101255.53;4156636;28;20037;-64
2023/12/27 00:46:02;;;;;;;7.93;3.30;;;;;;;8.83;79.43;101260.72;4159184;28;20038;-64
2023/12/27 00:48:05;;;;;;;6.15;2.20;;;;;;;8.80;79.40;101258.03;4161399;28;20042;-64
2023/12/27 00:50:08;;;;;;;4.47;2.47;;;;;;;8.85;79.38;101259.09;4163872;28;20083;-64
2023/12/27 00:52:12;;;;;;;8.93;3.10;;;;;;;8.82;79.30;101253.75;4151755;28;20059;-63
2023/12/27 00:54:15;;;;;;;5.43;2.28;;;;;;;8.82;79.16;101252.06;4148323;28;20069;-64
2023/12/27 00:56:18;;;;;;;3.45;2.30;;;;;;;8.81;79.18;101257.22;4148121;28;20061;-63
2023/12/27 00:58:20;;;;;;;6.80;2.00;;;;;;;8.79;79.40;101245.88;4156526;28;20041;-63
2023/12/27 01:00:23;;;;;;;4.93;2.40;;;;;;;8.81;79.30;101244.25;4156988;28;20037;-64
2023/12/27 01:02:26;;;;;;;6.30;2.10;;;;;;;8.78;79.28;101257.97;4162990;28;20065;-64
2023/12/27 01:04:29;;;;;;;17.73;9.23;;;;;;;8.76;79.50;101264.84;4154629;28;20041;-64
2023/12/27 01:06:32;;;;;;;17.42;9.80;;;;;;;8.78;79.59;101267.47;4149463;28;20042;-64
2023/12/27 01:08:37;;;;;;;11.70;5.03;;;;;;;8.79;79.59;101264.03;4155688;28;20037;-64
2023/12/27 01:10:40;;;;;;;7.70;3.05;;;;;;;8.77;79.68;101263.13;4161007;28;20043;-64
2023/12/27 01:12:43;;;;;;;4.75;2.63;;;;;;;8.79;79.74;101267.53;4160686;28;20371;-65
2023/12/27 01:14:46;;;;;;;8.77;4.65;;;;;;;8.82;79.58;101259.84;4155897;28;20073;-64
2023/12/27 01:16:49;;;;;;;10.38;5.47;;;;;;;8.84;79.33;101268.56;4153660;28;20103;-64
2023/12/27 01:18:51;;;;;;;9.35;5.60;;;;;;;8.81;79.59;101267.59;4154668;28;20068;-64
2023/12/27 01:20:55;;;;;;;8.30;4.55;;;;;;;8.81;79.82;101262.41;4165122;28;20483;-64
2023/12/27 01:22:58;;;;;;;7.80;3.50;;;;;;;8.83;79.71;101265.91;4154113;28;20048;-64
2023/12/27 01:25:04;;;;;;;8.23;4.60;;;;;;;8.83;79.57;101271.97;4163408;28;20219;-65
2023/12/27 01:27:10;;;;;;;4.50;2.53;;;;;;;8.85;79.82;101272.06;4160003;28;20041;-64
2023/12/27 01:29:13;;;;;;;5.35;3.20;;;;;;;8.88;79.54;101275.63;4147975;28;20046;-64
2023/12/27 01:31:15;;;;;;;4.88;2.70;;;;;;;8.88;79.41;101278.22;4159638;28;20092;-64
2023/12/27 01:33:18;;;;;;;4.15;2.60;;;;;;;8.84;79.37;101276.34;4155470;28;20488;-64
2023/12/27 01:35:22;;;;;;;5.32;2.97;;;;;;;8.85;79.53;101274.66;4163952;28;20400;-64
2023/12/27 01:37:24;;;;;;;6.15;3.25;;;;;;;8.85;79.52;101279.81;4151409;28;20044;-64
2023/12/27 01:39:27;;;;;;;9.90;3.55;;;;;;;8.83;79.45;101271.97;4156343;28;20076;-64
2023/12/27 01:41:32;;;;;;;5.13;2.92;;;;;;;8.84;79.14;101271.16;4159436;28;20059;-64
2023/12/27 01:43:35;;;;;;;4.88;2.42;;;;;;;8.80;79.58;101265.81;4154834;28;20041;-64
2023/12/27 01:45:38;;;;;;;4.03;2.50;;;;;;;8.78;79.75;101267.47;4149263;28;20458;-65
2023/12/27 01:47:43;;;;;;;3.67;2.35;;;;;;;8.74;79.61;101267.34;4160351;28;20072;-63
2023/12/27 01:49:46;;;;;;;8.57;3.17;;;;;;;8.63;80.10;101275.56;4159556;28;20095;-63
2023/12/27 01:51:49;;;;;;;6.35;2.72;;;;;;;8.62;80.06;101272.13;4154383;28;20120;-65
2023/12/27 01:53:52;;;;;;;5.85;3.00;;;;;;;8.64;79.92;101270.44;4158764;28;20436;-64
2023/12/27 01:55:56;;;;;;;6.25;2.72;;;;;;;8.65;79.61;101279.13;4169822;28;20042;-64
2023/12/27 01:58:00;;;;;;;4.45;2.65;;;;;;;8.63;79.64;101279.06;4158277;28;20037;-63
2023/12/27 02:00:04;;;;;;;6.18;3.50;;;;;;;8.63;79.76;101283.34;4154710;28;20072;-64
2023/12/27 02:02:13;;;;;;;5.07;2.97;;;;;;;8.59;79.49;101277.19;4155080;28;20498;-64
2023/12/27 02:04:16;;;;;;;5.95;2.72;;;;;;;8.58;79.70;101277.16;4162399;28;20103;-64
2023/12/27 02:06:23;;;;;;;4.07;2.78;;;;;;;8.57;79.77;101278.81;4155351;28;20041;-64
2023/12/27 02:08:27;;;;;;;5.18;2.75;;;;;;;8.61;79.74;101282.44;4159045;28;20088;-63
2023/12/27 02:10:30;;;;;;;7.20;4.15;;;;;;;8.59;79.75;101282.38;4156019;28;20045;-63
2023/12/27 02:12:33;;;;;;;7.28;3.33;;;;;;;8.63;79.73;101283.34;4158077;28;20464;-63
2023/12/27 02:14:38;;;;;;;4.43;2.47;;;;;;;8.67;79.56;101280.03;4162754;28;20136;-64
2023/12/27 02:16:41;;;;;;;5.60;2.92;;;;;;;8.65;79.81;101277.41;4159328;28;20041;-64
2023/12/27 02:18:44;;;;;;;7.50;2.97;;;;;;;8.64;79.55;101282.53;4153693;28;20041;-64
2023/12/27 02:20:47;;;;;;;10.57;3.30;;;;;;;8.64;79.64;101278.22;4155145;28;20088;-64
2023/12/27 02:22:53;;;;;;;8.18;3.85;;;;;;;8.65;79.70;101286.91;4161974;28;20041;-64
2023/12/27 02:24:57;;;;;;;7.00;3.38;;;;;;;8.63;79.67;101273.88;4154051;28;20038;-64
2023/12/27 02:27:00;;;;;;;11.05;4.05;;;;;;;8.60;79.59;101271.19;4157139;28;20135;-63
2023/12/27 02:29:03;;;;;;;7.53;4.43;;;;;;;8.62;79.66;101274.72;4161643;28;20413;-65
2023/12/27 02:31:06;;;;;;;6.65;3.40;;;;;;;8.59;79.57;101271.13;4156411;28;20128;-65
2023/12/27 02:33:08;;;;;;;11.35;4.45;;;;;;;8.55;79.83;101267.53;4152928;28;20619;-64
2023/12/27 02:35:12;;;;;;;8.52;4.20;;;;;;;8.56;79.81;101262.41;4159812;28;20076;-63
2023/12/27 02:37:16;;;;;;;8.63;4.05;;;;;;;8.53;80.06;101258.84;4158923;28;20072;-63
2023/12/27 02:39:19;;;;;;;11.23;5.13;;;;;;;8.54;79.69;101258.00;4138914;28;20050;-63
2023/12/27 02:41:24;;;;;;;8.35;4.72;;;;;;;8.51;79.59;101255.28;4159552;28;20099;-63
2023/12/27 02:43:27;;;;;;;8.27;4.22;;;;;;;8.47;80.01;101263.78;4153526;28;20077;-63
2023/12/27 02:45:29;;;;;;;6.43;4.20;;;;;;;8.46;79.94;101264.63;4170749;28;20047;-64
2023/12/27 02:47:32;;;;;;;11.02;4.75;;;;;;;8.49;80.00;101265.59;4155150;28;20030;-64
2023/12/27 02:49:35;;;;;;;9.05;5.07;;;;;;;8.46;79.96;101254.28;4155441;28;20088;-64
2023/12/27 02:51:38;;;;;;;8.52;4.90;;;;;;;8.42;80.10;101249.75;4158444;28;20037;-64
2023/12/27 02:53:41;;;;;;;7.90;4.75;;;;;;;8.39;80.21;101247.94;4161422;28;20050;-63
2023/12/27 02:55:44;;;;;;;9.35;5.20;;;;;;;8.44;80.31;101245.50;4158564;28;20076;-62
2023/12/27 02:57:49;;;;;;;9.57;4.75;;;;;;;8.43;80.44;101249.81;4151305;28;20030;-62
2023/12/27 03:00:11;;;;;;;13.05;5.80;;;;;;;8.39;80.33;101246.22;4159661;28;20075;-62
2023/12/27 03:02:15;;;;;;;8.82;5.55;;;;;;;8.44;80.45;101235.13;4153266;28;20069;-62
2023/12/27 03:04:18;;;;;;;10.70;5.32;;;;;;;8.44;80.70;101235.13;4157731;28;20506;-61
2023/12/27 03:06:20;;;;;;;10.88;5.43;;;;;;;8.44;80.83;101224.78;4147402;28;20080;-61
2023/12/27 03:08:23;;;;;;;12.57;4.90;;;;;;;8.44;80.68;101228.31;4160036;28;20037;-63
2023/12/27 03:10:26;;;;;;;11.77;5.38;;;;;;;8.42;80.68;101236.81;4161088;28;20523;-64
2023/12/27 03:12:29;;;;;;;12.15;4.65;;;;;;;8.38;80.84;101230.63;4157235;28;20488;-65
2023/12/27 03:14:34;;;;;;;9.93;6.22;;;;;;;8.41;80.95;101219.50;4162266;28;20041;-65
2023/12/27 03:16:37;;;;;;;10.80;4.55;;;;;;;8.42;80.86;101216.94;4140550;28;20524;-65
2023/12/27 03:18:39;;;;;;;11.60;6.45;;;;;;;8.46;80.76;101215.41;4154663;28;20037;-64
2023/12/27 03:20:42;;;;;;;11.88;3.97;;;;;;;8.46;80.46;101212.81;4162641;28;20171;-64
2023/12/27 03:22:45;;;;;;;9.05;4.32;;;;;;;8.52;80.28;101218.19;4162687;28;20092;-64
2023/12/27 03:24:49;;;;;;;11.38;4.97;;;;;;;8.48;80.45;101214.59;4163722;28;20083;-64
2023/12/27 03:26:52;;;;;;;7.80;4.20;;;;;;;8.49;80.38;101223.28;4160388;28;20038;-64
2023/12/27 03:28:54;;;;;;;10.27;4.05;;;;;;;8.51;80.63;101216.44;4162745;28;20071;-64
2023/12/27 03:30:59;;;;;;;10.85;4.88;;;;;;;8.54;80.44;101225.22;4160103;28;20474;-64
2023/12/27 03:33:02;;;;;;;10.45;4.72;;;;;;;8.54;80.42;101216.53;4160040;28;20099;-64
2023/12/27 03:35:07;;;;;;;8.05;4.40;;;;;;;8.54;80.37;101216.53;4156986;28;20042;-64
2023/12/27 03:37:10;;;;;;;9.30;4.05;;;;;;;8.51;80.42;101213.84;4160607;28;20041;-64
2023/12/27 03:39:12;;;;;;;12.65;5.38;;;;;;;8.50;80.52;101209.50;4160776;28;20041;-64
2023/12/27 03:41:15;;;;;;;7.28;4.40;;;;;;;8.50;80.45;101214.69;4156382;28;20037;-64
2023/12/27 03:43:18;;;;;;;7.40;4.18;;;;;;;8.45;80.58;101214.50;4160501;28;20049;-65
2023/12/27 03:45:21;;;;;;;12.38;5.10;;;;;;;8.51;80.66;101212.16;4148757;28;20471;-64
2023/12/27 03:47:26;;;;;;;13.45;5.50;;;;;;;8.56;80.52;101209.72;4155514;28;20053;-64
2023/12/27 03:49:28;;;;;;;8.98;4.10;;;;;;;8.56;80.08;101199.34;4155094;28;20034;-64
2023/12/27 03:51:32;;;;;;;10.10;4.60;;;;;;;8.52;80.48;101202.66;4153557;28;20554;-64
2023/12/27 03:53:35;;;;;;;9.98;4.15;;;;;;;8.53;80.23;101194.06;4150156;28;20045;-63
2023/12/27 03:55:38;;;;;;;9.60;5.53;;;;;;;8.52;80.29;101200.94;4153794;28;20539;-64
2023/12/27 03:57:41;;;;;;;11.13;4.25;;;;;;;8.50;80.58;101199.13;4154384;28;20707;-64
2023/12/27 03:59:43;;;;;;;10.68;4.68;;;;;;;8.51;80.30;101194.00;4155195;28;20037;-64
2023/12/27 04:01:46;;;;;;;7.78;4.30;;;;;;;8.52;80.39;101202.66;4156829;28;20072;-64
2023/12/27 04:03:50;;;;;;;8.43;4.50;;;;;;;8.51;80.32;101193.09;4170092;28;20038;-65
2023/12/27 04:05:52;;;;;;;11.27;5.03;;;;;;;8.50;80.43;101193.94;4158110;28;20041;-64
2023/12/27 04:07:55;;;;;;;12.60;5.25;;;;;;;8.48;80.38;101200.78;4159982;28;20120;-64
2023/12/27 04:09:58;;;;;;;8.13;4.70;;;;;;;8.52;80.56;101195.75;4157179;28;20034;-64
2023/12/27 04:12:01;;;;;;;10.13;5.65;;;;;;;8.54;80.59;101199.28;4159446;28;20045;-65
2023/12/27 04:14:04;;;;;;;10.40;5.45;;;;;;;8.54;80.33;101200.97;4162996;28;20337;-64
2023/12/27 04:16:07;;;;;;;13.45;5.57;;;;;;;8.55;80.69;101192.38;4158316;28;20077;-65
2023/12/27 04:18:11;;;;;;;15.85;6.03;;;;;;;8.55;80.39;101193.25;4159869;28;20037;-64
2023/12/27 04:20:16;;;;;;;;;;;;;;;8.44;80.70;101188.50;4163732;28;20045;-64
2023/12/27 04:22:19;;;;;;;9.50;5.03;;;;;;;8.47;80.91;101191.22;4176280;28;19956;-64
2023/12/27 04:24:22;;;;;;;14.40;5.68;;;;;;;8.52;80.62;101189.69;4162635;28;20044;-64
2023/12/27 04:26:25;;;;;;;12.30;5.30;;;;;;;8.55;80.53;101188.06;4162352;28;20041;-64
2023/12/27 04:28:28;;;;;;;11.73;5.55;;;;;;;8.60;80.39;101188.25;4154579;28;20064;-64
2023/12/27 04:30:30;;;;;;;10.05;5.40;;;;;;;8.60;80.28;101190.84;4146768;28;20104;-64
2023/12/27 04:32:33;;;;;;;10.50;5.82;;;;;;;8.56;80.33;101189.84;4155444;28;20049;-64
2023/12/27 04:34:35;;;;;;;12.00;5.90;;;;;;;8.58;80.29;101192.50;4155662;28;20052;-64
2023/12/27 04:36:40;;;;;;;8.73;4.13;;;;;;;8.57;80.23;101190.72;4157868;28;20128;-64
2023/12/27 04:38:42;;;;;;;8.93;4.53;;;;;;;8.62;79.95;101189.19;4154090;28;20038;-64
2023/12/27 04:40:47;;;;;;;10.93;5.50;;;;;;;8.54;80.17;101196.69;4163137;28;20045;-64
2023/12/27 04:42:51;;;;;;;13.48;5.25;;;;;;;8.48;80.07;101200.78;4158084;28;20099;-64
2023/12/27 04:44:54;;;;;;;11.68;5.57;;;;;;;8.45;80.30;101198.09;4158629;28;20041;-64
2023/12/27 04:46:57;;;;;;;10.55;5.50;;;;;;;8.47;80.57;101199.91;4155075;28;20427;-65
2023/12/27 04:49:00;;;;;;;11.18;5.80;;;;;;;8.52;80.12;101205.25;4153315;28;20048;-64
2023/12/27 04:51:05;;;;;;;17.23;5.50;;;;;;;8.50;80.06;101212.09;4157403;28;20060;-64
2023/12/27 04:53:09;;;;;;;14.68;6.07;;;;;;;8.53;80.02;101205.28;4162191;28;20485;-64
2023/12/27 04:55:12;;;;;;;9.55;4.93;;;;;;;8.53;79.79;101204.44;4160707;28;20557;-64
2023/12/27 04:57:14;;;;;;;9.20;4.60;;;;;;;8.53;80.03;101201.84;4156250;28;20045;-64
2023/12/27 04:59:17;;;;;;;9.82;5.10;;;;;;;8.47;80.03;101204.19;4156380;28;20080;-64
2023/12/27 05:01:19;;;;;;;10.20;4.85;;;;;;;8.46;80.01;101195.53;4156262;28;20038;-64
2023/12/27 05:03:22;;;;;;;11.57;5.28;;;;;;;8.49;80.07;101202.53;4162625;28;20128;-64
2023/12/27 05:05:26;;;;;;;13.18;5.63;;;;;;;8.49;80.23;101194.78;4141179;28;20038;-64
2023/12/27 05:07:29;;;;;;;11.57;5.03;;;;;;;8.59;79.82;101196.84;4155503;28;20061;-64
2023/12/27 05:09:33;;;;;;;9.98;5.25;;;;;;;8.52;79.86;101198.34;4156212;28;20542;-64
2023/12/27 05:11:37;;;;;;;9.57;5.30;;;;;;;8.49;80.02;101198.22;4161057;28;20077;-64
2023/12/27 05:13:39;;;;;;;13.02;5.65;;;;;;;8.53;79.97;101194.06;4156549;28;20076;-64
2023/12/27 05:15:42;;;;;;;10.73;5.13;;;;;;;8.52;79.76;101184.50;4154292;28;20041;-63
2023/12/27 05:17:45;;;;;;;13.77;5.20;;;;;;;8.43;79.83;101186.75;4162165;28;20507;-63
2023/12/27 05:19:47;;;;;;;9.43;5.30;;;;;;;8.42;80.23;101188.44;4163718;28;20041;-63
2023/12/27 05:21:50;;;;;;;10.93;5.40;;;;;;;8.43;80.09;101191.94;4161314;28;20577;-62
2023/12/27 05:23:53;;;;;;;11.38;6.30;;;;;;;8.40;80.20;101192.72;4156271;28;20045;-62
2023/12/27 05:25:57;;;;;;;11.45;5.68;;;;;;;8.41;80.06;101178.03;4158195;28;20038;-61
2023/12/27 05:27:59;;;;;;;14.52;5.38;;;;;;;8.42;80.14;101179.81;4165875;28;20065;-62
2023/12/27 05:30:03;;;;;;;7.32;4.65;;;;;;;8.39;80.37;101176.25;4151376;28;20136;-62
2023/12/27 05:32:07;;;;;;;10.00;4.93;;;;;;;8.37;80.51;101167.56;4164621;28;20060;-62
2023/12/27 05:34:10;;;;;;;9.52;5.03;;;;;;;8.37;80.32;101169.28;4154289;28;20504;-63
2023/12/27 05:36:14;;;;;;;10.07;4.40;;;;;;;8.42;80.20;101170.31;4166135;28;20043;-62
2023/12/27 05:38:16;;;;;;;9.63;4.40;;;;;;;8.42;80.25;101159.94;4161988;28;20095;-62
2023/12/27 05:40:19;;;;;;;12.13;5.38;;;;;;;8.39;80.25;101152.94;4165443;28;20087;-64
2023/12/27 05:42:24;;;;;;;13.32;5.57;;;;;;;8.44;80.13;101155.75;4163821;28;20095;-62
2023/12/27 05:44:26;;;;;;;12.40;5.00;;;;;;;8.42;79.99;101147.00;4164484;28;20033;-65
2023/12/27 05:46:29;;;;;;;8.68;4.40;;;;;;;8.36;80.27;101145.06;4162808;28;20037;-62
2023/12/27 05:48:32;;;;;;;10.93;4.18;;;;;;;8.34;80.31;101151.06;4165147;28;20041;-64
2023/12/27 05:50:35;;;;;;;11.70;4.60;;;;;;;8.34;80.28;101151.06;4164093;28;20048;-64
2023/12/27 05:52:40;;;;;;;13.10;5.60;;;;;;;8.39;80.39;101152.94;4151524;28;20037;-63
2023/12/27 05:54:43;;;;;;;7.93;4.13;;;;;;;8.34;80.41;101145.88;4158156;28;20099;-63
2023/12/27 05:56:46;;;;;;;8.55;3.80;;;;;;;8.28;80.28;101151.72;4165142;28;20042;-63
2023/12/27 05:58:50;;;;;;;6.15;4.03;;;;;;;8.26;80.61;101155.94;4164402;28;20041;-63
2023/12/27 06:00:53;;;;;;;10.80;4.60;;;;;;;8.28;80.63;101156.00;4161350;28;20538;-64
2023/12/27 06:02:59;;;;;;;8.25;4.72;;;;;;;8.31;80.37;101151.81;4165075;28;20053;-63
2023/12/27 06:05:02;;;;;;;9.98;4.72;;;;;;;8.33;80.42;101151.88;4163882;28;20415;-65
2023/12/27 06:07:06;;;;;;;17.33;5.32;;;;;;;8.30;80.30;101152.63;4163696;28;20041;-62
2023/12/27 06:09:09;;;;;;;10.82;4.43;;;;;;;8.32;80.35;101152.69;4152266;28;20045;-63
2023/12/27 06:11:12;;;;;;;12.05;4.65;;;;;;;8.29;80.37;101155.19;4157355;28;20041;-62
2023/12/27 06:13:15;;;;;;;8.27;4.15;;;;;;;8.28;80.42;101166.34;4163995;28;20034;-62
2023/12/27 06:15:19;;;;;;;12.48;4.90;;;;;;;8.31;80.51;101174.22;4161874;28;20405;-63
2023/12/27 06:17:22;;;;;;;14.85;5.32;;;;;;;8.30;80.26;101181.13;4163106;28;20522;-64
2023/12/27 06:19:25;;;;;;;10.55;4.35;;;;;;;8.33;80.30;101170.88;4165048;28;20064;-64
2023/12/27 06:21:28;;;;;;;12.88;5.18;;;;;;;8.37;80.21;101169.28;4152916;28;20033;-63
2023/12/27 06:23:31;;;;;;;8.90;4.57;;;;;;;8.37;80.10;101177.94;4163323;28;20095;-64
2023/12/27 06:25:36;;;;;;;10.20;5.00;;;;;;;8.30;80.19;101173.38;4155370;28;20046;-63
2023/12/27 06:27:40;;;;;;;9.38;4.60;;;;;;;8.30;80.18;101164.72;4154245;28;20046;-64
2023/12/27 06:29:43;;;;;;;11.32;4.10;;;;;;;8.28;80.16;101163.75;4153754;28;20458;-64
2023/12/27 06:31:47;;;;;;;10.75;4.03;;;;;;;8.34;80.15;101169.19;4155904;28;20065;-64
2023/12/27 06:33:50;;;;;;;9.73;3.85;;;;;;;8.34;80.20;101176.97;4162047;28;20419;-63
2023/12/27 06:35:53;;;;;;;11.98;4.70;;;;;;;8.37;80.07;101177.94;4161567;28;20041;-63
2023/12/27 06:37:56;;;;;;;10.77;3.67;;;;;;;8.41;79.95;101175.44;4173252;28;20495;-63
2023/12/27 06:39:59;;;;;;;8.07;4.03;;;;;;;8.41;79.99;101175.44;4163651;28;20065;-64
2023/12/27 06:42:03;;;;;;;11.23;4.40;;;;;;;8.43;79.67;101168.63;4165428;28;20450;-64
2023/12/27 06:44:06;;;;;;;8.40;4.40;;;;;;;8.45;79.76;101167.84;4162409;28;20045;-64
2023/12/27 06:46:09;;;;;;;9.13;3.63;;;;;;;8.46;79.67;101171.34;4171410;28;20037;-64
2023/12/27 06:48:14;;;;;;;11.77;5.15;;;;;;;8.45;79.62;101159.22;4167369;28;20064;-64
2023/12/27 06:50:17;;;;;;;9.95;4.93;;;;;;;8.39;79.56;101144.31;4159238;28;20036;-64
2023/12/27 06:52:20;;;;;;;9.02;3.58;;;;;;;8.35;79.52;101145.91;4165801;28;20037;-64
2023/12/27 06:54:22;;;;;;;13.20;4.35;;;;;;;8.33;79.50;101160.50;4162314;28;20052;-64
2023/12/27 06:56:25;;;;;;;7.95;3.63;;;;;;;8.34;79.58;101162.28;4160788;28;20061;-64
2023/12/27 06:58:28;;;;;;;12.13;4.20;;;;;;;8.36;79.57;101152.84;4164471;28;20042;-64
2023/12/27 07:00:31;;;;;;;8.73;4.22;;;;;;;8.39;79.67;101158.13;4163373;28;20479;-63
2023/12/27 07:02:34;;;;;;;8.43;3.70;;;;;;;8.37;79.45;101152.03;4162571;28;20043;-64
2023/12/27 07:04:38;;;;;;;10.00;4.43;;;;;;;8.36;79.31;101162.34;4167609;28;20037;-64
2023/12/27 07:06:41;;;;;;;11.93;5.07;;;;;;;8.30;79.41;101163.00;4163674;28;20128;-64
2023/12/27 07:08:44;;;;;;;9.30;3.63;;;;;;;8.29;79.30;101160.34;4156275;28;20040;-64
2023/12/27 07:10:47;;;;;;;9.27;4.15;;;;;;;8.28;79.52;101158.59;4162761;28;20038;-63
2023/12/27 07:12:50;;;;;;;11.73;3.97;;;;;;;8.26;79.39;101157.66;4168932;28;20075;-62
2023/12/27 07:14:53;;;;;;;10.60;4.05;;;;;;;8.27;79.52;101152.53;4157649;28;20400;-63
2023/12/27 07:16:56;;;;;;;9.88;3.80;;;;;;;8.27;79.58;101144.75;4158672;28;20040;-63
2023/12/27 07:18:59;;;;;;;13.85;4.53;;;;;;;8.35;79.26;101152.78;4159839;28;20100;-64
2023/12/27 07:21:04;;;;;;;5.90;3.30;;;;;;;8.39;79.17;101159.84;4161241;28;20080;-63
2023/12/27 07:23:07;;;;;;;11.95;4.25;;;;;;;8.39;79.02;101155.53;4163013;28;20045;-64
2023/12/27 07:25:10;;;;;;;10.73;3.90;;;;;;;8.41;78.81;101162.50;4161936;28;20553;-64
2023/12/27 07:27:13;;;;;;;9.82;3.83;;;;;;;8.40;78.73;101171.97;4159900;28;20045;-63
2023/12/27 07:29:16;;;;;;;12.30;4.15;;;;;;;8.43;78.80;101171.22;4160880;28;20462;-63
2023/12/27 07:31:19;;;;;;;9.82;3.63;;;;;;;8.41;78.72;101170.25;4163950;28;20380;-63
2023/12/27 07:33:22;;;;;;;8.48;3.92;;;;;;;8.41;79.22;101168.56;4177933;28;20036;-63
2023/12/27 07:35:25;;;;;;;9.80;3.63;;;;;;;8.42;78.73;101169.44;4159713;28;20087;-63
2023/12/27 07:37:30;;;;;;;11.50;3.78;;;;;;;8.39;78.69;101171.06;4160147;28;20068;-63
2023/12/27 07:39:33;;;;;;;;;;;;;;;8.30;78.68;101180.25;4161879;28;20107;-63
2023/12/27 07:41:36;;;;;;;8.18;3.80;;;;;;;8.31;78.75;101177.72;4161085;28;20012;-64
2023/12/27 07:43:41;;;;;;;11.15;3.65;;;;;;;8.33;78.35;101181.25;4162617;28;20116;-63
2023/12/27 07:45:44;;;;;;;9.80;3.65;;;;;;;8.36;78.55;101170.97;4159187;28;20041;-63
2023/12/27 07:47:47;;;;;;;10.52;3.83;;;;;;;8.36;78.52;101178.75;4162454;28;20045;-63
2023/12/27 07:49:50;;;;;;;10.05;4.10;;;;;;;8.35;78.28;101178.69;4163029;28;20037;-63
2023/12/27 07:51:53;;;;;;;9.63;4.03;;;;;;;8.29;78.46;101181.94;4163085;28;20479;-63
2023/12/27 07:53:57;;;;;;;11.98;3.78;;;;;;;8.31;78.19;101182.91;4163433;28;20088;-63
2023/12/27 07:56:03;;;;;;;9.25;2.90;;;;;;;8.32;78.32;101178.59;4160590;28;20446;-63
2023/12/27 07:58:08;;;;;;;17.52;3.22;;;;;;;8.85;82.59;101174.38;4163670;28;20096;-65
2023/12/27 08:00:11;;;;;;;10.70;3.92;;;;;;;9.49;83.15;101173.75;4163674;28;20045;-65
2023/12/27 08:02:14;;;;;;;6.88;3.25;;;;;;;9.83;80.92;101167.84;4163702;28;20470;-64
2023/12/27 08:04:17;;;;;;;9.82;4.38;;;;;;;9.69;77.15;101159.66;4163668;28;20037;-64
2023/12/27 08:06:20;;;;;;;5.18;3.47;;;;;;;9.42;75.67;101165.78;4161620;28;20041;-64
2023/12/27 08:08:25;;;;;;;10.52;3.60;;;;;;;9.13;76.15;101158.84;4178148;28;20045;-63
2023/12/27 08:10:29;;;;;;;8.90;3.35;;;;;;;8.96;76.35;101153.09;4162570;28;20095;-64
2023/12/27 08:12:32;;;;;;;9.90;3.40;;;;;;;8.81;76.62;101151.78;4161486;28;20042;-64
2023/12/27 08:14:36;;;;;;;9.93;3.90;;;;;;;8.73;76.76;101156.72;4161032;28;20045;-64
2023/12/27 08:16:39;;;;;;;10.95;4.45;;;;;;;8.68;76.84;101166.03;4156770;28;20048;-64
2023/12/27 08:18:41;;;;;;;7.75;3.60;;;;;;;8.67;76.90;101164.31;4160012;28;20069;-64
2023/12/27 08:20:44;;;;;;;8.07;3.40;;;;;;;8.66;76.98;101162.53;4158387;28;20036;-64
2023/12/27 08:22:47;;;;;;;9.48;3.05;;;;;;;8.65;76.83;101158.16;4161574;28;20092;-63
2023/12/27 08:24:48;;;;;;;7.10;3.33;;;;;;;8.56;76.94;101152.69;4159032;28;20056;-63
2023/12/27 08:26:53;;;;;;;8.95;3.55;;;;;;;8.53;76.88;101140.50;4158835;28;20116;-63
2023/12/27 08:28:56;;;;;;;12.45;2.78;;;;;;;8.59;76.69;101115.63;4162372;28;20422;-63
2023/12/27 08:30:59;;;;;;;8.05;3.40;;;;;;;8.60;76.61;101101.81;4157736;28;20698;-64
2023/12/27 08:33:06;;;;;;;10.07;4.43;;;;;;;8.53;76.77;101095.59;4158108;28;20041;-64
2023/12/27 08:35:08;;;;;;;11.27;4.20;;;;;;;8.55;76.53;101080.94;4161865;28;20107;-64
2023/12/27 08:37:11;;;;;;;7.50;3.65;;;;;;;8.51;76.58;101073.91;4159646;28;20103;-64
2023/12/27 08:39:14;;;;;;;8.85;3.22;;;;;;;8.51;76.54;101092.94;4158929;28;20047;-64
2023/12/27 08:41:17;;;;;;;8.65;2.70;;;;;;;8.58;76.43;101099.19;4158878;28;20034;-64
2023/12/27 08:43:21;;;;;;;13.02;3.63;;;;;;;8.58;76.25;101114.72;4160301;28;20056;-63
2023/12/27 08:45:24;;;;;;;9.20;3.42;;;;;;;8.53;76.39;101121.50;4161914;28;20092;-63
2023/12/27 08:47:28;;;;;;;9.57;3.60;;;;;;;8.61;76.14;101119.16;4162160;28;20041;-64
2023/12/27 08:49:31;;;;;;;6.70;3.22;;;;;;;8.62;76.31;101107.97;4159319;28;20029;-64
2023/12/27 08:51:37;;;;;;;12.85;5.28;;;;;;;8.63;76.22;101113.19;4162281;28;20041;-64
2023/12/27 08:53:40;;;;;;;11.77;3.60;;;;;;;8.65;76.18;101108.94;4160171;28;20037;-65
2023/12/27 08:55:42;;;;;;;9.88;3.53;;;;;;;8.68;76.29;101116.78;4161864;28;20124;-64
2023/12/27 08:57:45;;;;;;;7.30;3.00;;;;;;;8.77;76.17;101123.13;4162706;28;20044;-64
2023/12/27 08:59:51;;;;;;;9.75;3.17;;;;;;;8.85;76.16;101113.88;4160442;28;20045;-64
2023/12/27 09:01:54;;;;;;;12.48;3.22;;;;;;;8.81;76.31;101105.13;4163536;28;20491;-64
2023/12/27 09:03:56;;;;;;;7.63;2.67;;;;;;;8.85;76.12;101103.50;4162960;28;20495;-65
2023/12/27 09:06:00;;;;;;;8.65;3.55;;;;;;;8.90;75.95;101112.31;4161328;28;20045;-65
2023/12/27 09:08:03;;;;;;;9.00;3.28;;;;;;;8.97;75.89;101118.56;4157277;28;20077;-65
2023/12/27 09:10:07;;;;;;;8.57;2.95;;;;;;;9.07;76.42;101113.72;4158581;28;20047;-63
2023/12/27 09:12:10;;;;;;;9.05;2.80;;;;;;;9.11;75.41;101121.59;4162638;28;20399;-64
2023/12/27 09:14:12;;;;;;;6.90;2.63;;;;;;;9.13;74.76;101125.13;4147354;28;20042;-63
2023/12/27 09:16:17;;;;;;;7.57;3.22;;;;;;;9.04;73.56;101126.59;4160957;28;20076;-63
2023/12/27 09:18:20;;;;;;;8.10;2.75;;;;;;;9.03;73.67;101117.03;4162657;28;20037;-63
2023/12/27 09:20:23;;;;;;;8.82;2.85;;;;;;;9.03;73.46;101110.97;4164603;28;20481;-65
2023/12/27 09:22:27;;;;;;;7.03;2.60;;;;;;;9.07;73.47;101111.13;4163669;28;20049;-65
2023/12/27 09:24:31;;;;;;;10.82;2.97;;;;;;;9.04;73.01;101107.56;4165558;28;20080;-65
2023/12/27 09:26:33;;;;;;;10.25;2.92;;;;;;;9.00;73.28;101103.09;4164690;28;20129;-64
2023/12/27 09:28:36;;;;;;;8.25;3.00;;;;;;;9.06;73.44;101103.28;4164526;28;20048;-64
2023/12/27 09:30:40;;;;;;;7.78;2.60;;;;;;;9.14;73.19;101094.03;4179207;28;20636;-64
2023/12/27 09:32:44;;;;;;;7.10;2.47;;;;;;;9.17;73.21;101101.91;4159649;28;20788;-64
2023/12/27 09:34:47;;;;;;;10.18;3.00;;;;;;;9.18;73.51;101102.78;4163078;28;20486;-63
2023/12/27 09:36:50;;;;;;;8.88;2.88;;;;;;;9.25;72.67;101110.78;4176894;28;20040;-63